sensor_id;sensor_type;location;lat;lon;timestamp;pressure;altitude;pressure_sealevel;temperature;humidity
66021;BME280;52789;59.980;30.346;2023-04-22T00:01:13;101290.25;;;9.46;74.93
66021;BME280;52789;59.980;30.346;2023-04-22T00:03:39;101291.94;;;9.47;75.59
66021;BME280;52789;59.980;30.346;2023-04-22T00:06:06;101291.25;;;9.45;75.05
66021;BME280;52789;59.980;30.346;2023-04-22T00:08:31;101290.53;;;9.43;75.03
66021;BME280;52789;59.980;30.346;2023-04-22T00:10:57;101283.84;;;9.39;75.26
66021;BME280;52789;59.980;30.346;2023-04-22T00:13:22;101285.66;;;9.39;75.85
66021;BME280;52789;59.980;30.346;2023-04-22T00:15:47;101280.50;;;9.37;75.17
66021;BME280;52789;59.980;30.346;2023-04-22T00:18:13;101278.81;;;9.36;74.95
66021;BME280;52789;59.980;30.346;2023-04-22T00:20:41;101280.91;;;9.32;75.34
66021;BME280;52789;59.980;30.346;2023-04-22T00:23:07;101285.69;;;9.29;75.12
66021;BME280;52789;59.980;30.346;2023-04-22T00:25:33;101275.03;;;9.29;75.56
66021;BME280;52789;59.980;30.346;2023-04-22T00:27:58;101276.72;;;9.30;75.19
66021;BME280;52789;59.980;30.346;2023-04-22T00:30:24;101274.91;;;9.30;76.38
66021;BME280;52789;59.980;30.346;2023-04-22T00:32:49;101275.75;;;9.31;76.01
66021;BME280;52789;59.980;30.346;2023-04-22T00:35:14;101275.47;;;9.34;74.98
66021;BME280;52789;59.980;30.346;2023-04-22T00:37:40;101283.00;;;9.39;74.94
66021;BME280;52789;59.980;30.346;2023-04-22T00:40:05;101288.31;;;9.39;75.73
66021;BME280;52789;59.980;30.346;2023-04-22T00:42:31;101283.56;;;9.42;75.40
66021;BME280;52789;59.980;30.346;2023-04-22T00:44:56;101272.78;;;9.44;74.93
66021;BME280;52789;59.980;30.346;2023-04-22T00:47:22;101274.31;;;9.46;74.03
66021;BME280;52789;59.980;30.346;2023-04-22T00:49:50;101284.66;;;9.49;73.87
66021;BME280;52789;59.980;30.346;2023-04-22T00:52:16;101267.84;;;9.49;74.59
66021;BME280;52789;59.980;30.346;2023-04-22T00:54:41;101278.63;;;9.47;74.16
66021;BME280;52789;59.980;30.346;2023-04-22T00:57:06;101267.31;;;9.45;75.05
66021;BME280;52789;59.980;30.346;2023-04-22T00:59:32;101268.16;;;9.46;74.22
66021;BME280;52789;59.980;30.346;2023-04-22T01:01:57;101264.66;;;9.45;74.09
66021;BME280;52789;59.980;30.346;2023-04-22T01:04:23;101262.97;;;9.44;74.50
66021;BME280;52789;59.980;30.346;2023-04-22T01:06:50;101258.66;;;9.43;73.99
66021;BME280;52789;59.980;30.346;2023-04-22T01:09:17;101257.81;;;9.43;73.80
66021;BME280;52789;59.980;30.346;2023-04-22T01:11:43;101257.13;;;9.41;74.23
66021;BME280;52789;59.980;30.346;2023-04-22T01:14:08;101248.31;;;9.40;73.81
66021;BME280;52789;59.980;30.346;2023-04-22T01:16:34;101253.91;;;9.37;73.95
66021;BME280;52789;59.980;30.346;2023-04-22T01:19:03;101243.56;;;9.34;73.24
66021;BME280;52789;59.980;30.346;2023-04-22T01:21:28;101250.84;;;9.32;73.23
66021;BME280;52789;59.980;30.346;2023-04-22T01:23:54;101251.81;;;9.31;73.02
66021;BME280;52789;59.980;30.346;2023-04-22T01:26:20;101256.31;;;9.30;72.85
66021;BME280;52789;59.980;30.346;2023-04-22T01:28:46;101257.13;;;9.31;72.78
66021;BME280;52789;59.980;30.346;2023-04-22T01:31:12;101257.44;;;9.28;72.97
66021;BME280;52789;59.980;30.346;2023-04-22T01:33:37;101256.72;;;9.26;73.10
66021;BME280;52789;59.980;30.346;2023-04-22T01:36:02;101248.75;;;9.26;72.17
66021;BME280;52789;59.980;30.346;2023-04-22T01:38:28;101236.56;;;9.23;73.20
66021;BME280;52789;59.980;30.346;2023-04-22T01:40:57;101235.03;;;9.21;73.25
66021;BME280;52789;59.980;30.346;2023-04-22T01:43:22;101236.69;;;9.22;73.05
66021;BME280;52789;59.980;30.346;2023-04-22T01:45:48;101235.56;;;9.24;72.40
66021;BME280;52789;59.980;30.346;2023-04-22T01:48:13;101227.22;;;9.29;72.61
66021;BME280;52789;59.980;30.346;2023-04-22T01:50:39;101234.88;;;9.32;72.39
66021;BME280;52789;59.980;30.346;2023-04-22T01:53:04;101234.88;;;9.32;72.48
66021;BME280;52789;59.980;30.346;2023-04-22T01:55:31;101228.75;;;9.31;73.09
66021;BME280;52789;59.980;30.346;2023-04-22T01:58:00;101236.16;;;9.28;73.66
66021;BME280;52789;59.980;30.346;2023-04-22T02:00:25;101228.44;;;9.25;73.39
66021;BME280;52789;59.980;30.346;2023-04-22T02:02:50;101224.00;;;9.25;72.71
66021;BME280;52789;59.980;30.346;2023-04-22T02:05:16;101227.50;;;9.26;73.68
66021;BME280;52789;59.980;30.346;2023-04-22T02:07:42;101228.59;;;9.23;73.29
66021;BME280;52789;59.980;30.346;2023-04-22T02:10:07;101228.72;;;9.22;73.19
66021;BME280;52789;59.980;30.346;2023-04-22T02:12:33;101225.38;;;9.20;73.45
66021;BME280;52789;59.980;30.346;2023-04-22T02:14:59;101237.28;;;9.16;74.12
66021;BME280;52789;59.980;30.346;2023-04-22T02:17:33;101229.75;;;9.11;74.05
66021;BME280;52789;59.980;30.346;2023-04-22T02:20:00;101231.56;;;9.11;74.56
66021;BME280;52789;59.980;30.346;2023-04-22T02:22:25;101229.34;;;9.06;74.85
66021;BME280;52789;59.980;30.346;2023-04-22T02:24:53;101233.53;;;9.09;74.53
66021;BME280;52789;59.980;30.346;2023-04-22T02:27:18;101236.88;;;9.11;75.17
66021;BME280;52789;59.980;30.346;2023-04-22T02:29:44;101237.41;;;9.14;74.50
66021;BME280;52789;59.980;30.346;2023-04-22T02:32:10;101238.97;;;9.17;74.31
66021;BME280;52789;59.980;30.346;2023-04-22T02:34:35;101234.34;;;9.19;74.29
66021;BME280;52789;59.980;30.346;2023-04-22T02:37:00;101241.31;;;9.20;74.43
66021;BME280;52789;59.980;30.346;2023-04-22T02:39:26;101233.34;;;9.20;73.99
66021;BME280;52789;59.980;30.346;2023-04-22T02:41:51;101237.97;;;9.18;73.71
66021;BME280;52789;59.980;30.346;2023-04-22T02:44:16;101219.38;;;9.18;74.18
66021;BME280;52789;59.980;30.346;2023-04-22T02:46:42;101238.81;;;9.18;73.86
66021;BME280;52789;59.980;30.346;2023-04-22T02:49:07;101232.38;;;9.21;73.59
66021;BME280;52789;59.980;30.346;2023-04-22T02:51:32;101221.44;;;9.24;73.80
66021;BME280;52789;59.980;30.346;2023-04-22T02:53:58;101225.09;;;9.23;73.21
66021;BME280;52789;59.980;30.346;2023-04-22T02:56:24;101223.13;;;9.25;73.27
66021;BME280;52789;59.980;30.346;2023-04-22T02:58:50;101223.41;;;9.22;74.16
66021;BME280;52789;59.980;30.346;2023-04-22T03:01:16;101223.56;;;9.20;73.70
66021;BME280;52789;59.980;30.346;2023-04-22T03:03:41;101222.44;;;9.23;74.01
66021;BME280;52789;59.980;30.346;2023-04-22T03:06:06;101226.66;;;9.25;73.42
66021;BME280;52789;59.980;30.346;2023-04-22T03:08:32;101226.22;;;9.30;72.89
66021;BME280;52789;59.980;30.346;2023-04-22T03:10:57;101222.28;;;9.34;72.81
66021;BME280;52789;59.980;30.346;2023-04-22T03:13:22;101223.69;;;9.38;73.19
66021;BME280;52789;59.980;30.346;2023-04-22T03:15:47;101219.50;;;9.36;72.89
66021;BME280;52789;59.980;30.346;2023-04-22T03:18:13;101227.75;;;9.32;73.00
66021;BME280;52789;59.980;30.346;2023-04-22T03:20:38;101228.44;;;9.35;72.98
66021;BME280;52789;59.980;30.346;2023-04-22T03:23:04;101223.69;;;9.38;72.11
66021;BME280;52789;59.980;30.346;2023-04-22T03:25:31;101224.25;;;9.32;73.65
66021;BME280;52789;59.980;30.346;2023-04-22T03:27:56;101225.38;;;9.29;73.25
66021;BME280;52789;59.980;30.346;2023-04-22T03:30:21;101223.28;;;9.33;73.39
66021;BME280;52789;59.980;30.346;2023-04-22T03:32:47;101220.19;;;9.38;73.66
66021;BME280;52789;59.980;30.346;2023-04-22T03:35:12;101219.59;;;9.44;72.77
66021;BME280;52789;59.980;30.346;2023-04-22T03:37:37;101224.34;;;9.50;73.21
66021;BME280;52789;59.980;30.346;2023-04-22T03:40:03;101219.84;;;9.50;73.79
66021;BME280;52789;59.980;30.346;2023-04-22T03:42:30;101219.16;;;9.48;73.62
66021;BME280;52789;59.980;30.346;2023-04-22T03:44:55;101223.06;;;9.54;73.76
66021;BME280;52789;59.980;30.346;2023-04-22T03:47:20;101217.72;;;9.63;73.11
66021;BME280;52789;59.980;30.346;2023-04-22T03:49:46;101219.50;;;9.73;72.48
66021;BME280;52789;59.980;30.346;2023-04-22T03:52:11;101219.75;;;9.79;73.00
66021;BME280;52789;59.980;30.346;2023-04-22T03:54:36;101221.84;;;9.85;72.59
66021;BME280;52789;59.980;30.346;2023-04-22T03:57:02;101220.13;;;9.94;71.88
66021;BME280;52789;59.980;30.346;2023-04-22T03:59:27;101224.91;;;9.90;72.89
66021;BME280;52789;59.980;30.346;2023-04-22T04:01:52;101222.09;;;9.92;72.25
66021;BME280;52789;59.980;30.346;2023-04-22T04:04:18;101211.75;;;9.89;72.87
66021;BME280;52789;59.980;30.346;2023-04-22T04:06:44;101221.56;;;9.88;73.05
66021;BME280;52789;59.980;30.346;2023-04-22T04:09:10;101218.75;;;9.90;72.09
66021;BME280;52789;59.980;30.346;2023-04-22T04:11:36;101216.19;;;9.98;72.24
66021;BME280;52789;59.980;30.346;2023-04-22T04:14:01;101217.50;;;10.12;71.53
66021;BME280;52789;59.980;30.346;2023-04-22T04:16:27;101206.53;;;10.24;70.77
66021;BME280;52789;59.980;30.346;2023-04-22T04:18:53;101207.91;;;10.29;70.34
66021;BME280;52789;59.980;30.346;2023-04-22T04:21:18;101210.34;;;10.22;70.31
66021;BME280;52789;59.980;30.346;2023-04-22T04:23:43;101208.88;;;10.00;71.06
66021;BME280;52789;59.980;30.346;2023-04-22T04:26:08;101220.75;;;9.78;72.37
66021;BME280;52789;59.980;30.346;2023-04-22T04:28:35;101216.19;;;9.61;73.53
66021;BME280;52789;59.980;30.346;2023-04-22T04:31:00;101213.84;;;9.48;73.13
66021;BME280;52789;59.980;30.346;2023-04-22T04:33:28;101211.38;;;9.37;73.68
66021;BME280;52789;59.980;30.346;2023-04-22T04:35:55;101210.72;;;9.25;74.49
66021;BME280;52789;59.980;30.346;2023-04-22T04:38:22;101207.06;;;9.17;74.74
66021;BME280;52789;59.980;30.346;2023-04-22T04:40:49;101207.50;;;9.12;74.75
66021;BME280;52789;59.980;30.346;2023-04-22T04:43:14;101206.94;;;9.09;74.62
66021;BME280;52789;59.980;30.346;2023-04-22T04:45:40;101205.84;;;9.02;74.98
66021;BME280;52789;59.980;30.346;2023-04-22T04:48:10;101198.16;;;8.98;74.77
66021;BME280;52789;59.980;30.346;2023-04-22T04:50:36;101203.34;;;9.00;74.81
66021;BME280;52789;59.980;30.346;2023-04-22T04:53:02;101203.34;;;9.00;75.60
66021;BME280;52789;59.980;30.346;2023-04-22T04:55:27;101198.84;;;9.10;75.71
66021;BME280;52789;59.980;30.346;2023-04-22T04:57:53;101201.06;;;9.15;75.30
66021;BME280;52789;59.980;30.346;2023-04-22T05:00:18;101197.69;;;9.22;75.20
66021;BME280;52789;59.980;30.346;2023-04-22T05:02:44;101190.97;;;9.28;73.77
66021;BME280;52789;59.980;30.346;2023-04-22T05:05:09;101195.72;;;9.34;74.03
66021;BME280;52789;59.980;30.346;2023-04-22T05:07:35;101196.81;;;9.41;73.56
66021;BME280;52789;59.980;30.346;2023-04-22T05:10:01;101193.84;;;9.44;74.26
66021;BME280;52789;59.980;30.346;2023-04-22T05:12:28;101189.47;;;9.53;73.38
66021;BME280;52789;59.980;30.346;2023-04-22T05:14:53;101194.69;;;9.54;74.02
66021;BME280;52789;59.980;30.346;2023-04-22T05:17:18;101197.34;;;9.54;74.31
66021;BME280;52789;59.980;30.346;2023-04-22T05:19:44;101189.75;;;9.59;73.72
66021;BME280;52789;59.980;30.346;2023-04-22T05:22:09;101204.44;;;9.63;73.63
66021;BME280;52789;59.980;30.346;2023-04-22T05:24:35;101205.53;;;9.71;73.02
66021;BME280;52789;59.980;30.346;2023-04-22T05:27:00;101193.59;;;9.75;72.98
66021;BME280;52789;59.980;30.346;2023-04-22T05:29:26;101194.81;;;9.80;72.77
66021;BME280;52789;59.980;30.346;2023-04-22T05:31:51;101198.06;;;9.84;72.22
66021;BME280;52789;59.980;30.346;2023-04-22T05:34:17;101194.56;;;9.83;71.64
66021;BME280;52789;59.980;30.346;2023-04-22T05:36:42;101197.91;;;9.85;71.59
66021;BME280;52789;59.980;30.346;2023-04-22T05:39:07;101192.16;;;9.90;71.93
66021;BME280;52789;59.980;30.346;2023-04-22T05:41:33;101192.16;;;9.90;71.75
66021;BME280;52789;59.980;30.346;2023-04-22T05:43:58;101192.44;;;9.87;71.63
66021;BME280;52789;59.980;30.346;2023-04-22T05:46:23;101195.41;;;9.84;70.90
66021;BME280;52789;59.980;30.346;2023-04-22T05:48:58;101189.09;;;9.85;71.40
66021;BME280;52789;59.980;30.346;2023-04-22T05:51:23;101192.44;;;9.87;70.80
66021;BME280;52789;59.980;30.346;2023-04-22T05:53:49;101190.09;;;9.84;71.94
66021;BME280;52789;59.980;30.346;2023-04-22T05:56:14;101186.28;;;9.86;71.41
66021;BME280;52789;59.980;30.346;2023-04-22T05:58:39;101185.69;;;9.92;71.55
66021;BME280;52789;59.980;30.346;2023-04-22T06:01:05;101184.25;;;9.98;70.38
66021;BME280;52789;59.980;30.346;2023-04-22T06:03:30;101183.72;;;9.94;70.16
66021;BME280;52789;59.980;30.346;2023-04-22T06:10:46;101180.59;;;9.99;70.60
66021;BME280;52789;59.980;30.346;2023-04-22T06:13:11;101177.66;;;10.02;70.25
66021;BME280;52789;59.980;30.346;2023-04-22T06:15:36;101180.31;;;10.02;69.83
66021;BME280;52789;59.980;30.346;2023-04-22T06:18:01;101175.66;;;10.04;69.89
66021;BME280;52789;59.980;30.346;2023-04-22T06:20:27;101175.53;;;10.06;69.88
66021;BME280;52789;59.980;30.346;2023-04-22T06:22:52;101181.69;;;10.06;70.10
66021;BME280;52789;59.980;30.346;2023-04-22T06:25:18;101182.78;;;10.13;69.79
66021;BME280;52789;59.980;30.346;2023-04-22T06:27:43;101181.09;;;10.12;69.06
66021;BME280;52789;59.980;30.346;2023-04-22T06:30:09;101181.09;;;10.12;69.82
66021;BME280;52789;59.980;30.346;2023-04-22T06:32:36;101185.13;;;10.16;69.46
66021;BME280;52789;59.980;30.346;2023-04-22T06:35:01;101179.13;;;10.14;69.34
66021;BME280;52789;59.980;30.346;2023-04-22T06:37:26;101171.53;;;10.19;69.58
66021;BME280;52789;59.980;30.346;2023-04-22T06:39:52;101177.56;;;10.21;70.02
66021;BME280;52789;59.980;30.346;2023-04-22T06:42:17;101175.59;;;10.23;69.63
66021;BME280;52789;59.980;30.346;2023-04-22T06:44:42;101169.13;;;10.26;69.90
66021;BME280;52789;59.980;30.346;2023-04-22T06:47:08;101173.16;;;10.30;69.92
66021;BME280;52789;59.980;30.346;2023-04-22T06:49:33;101171.41;;;10.39;69.43
66021;BME280;52789;59.980;30.346;2023-04-22T06:52:02;101165.09;;;10.40;69.42
66021;BME280;52789;59.980;30.346;2023-04-22T06:54:27;101154.53;;;10.48;69.57
66021;BME280;52789;59.980;30.346;2023-04-22T06:56:53;101164.28;;;10.57;68.93
66021;BME280;52789;59.980;30.346;2023-04-22T06:59:18;101159.94;;;10.56;68.43
66021;BME280;52789;59.980;30.346;2023-04-22T07:01:44;101158.94;;;10.57;68.41
66021;BME280;52789;59.980;30.346;2023-04-22T07:04:09;101161.97;;;10.62;68.29
66021;BME280;52789;59.980;30.346;2023-04-22T07:06:35;101155.28;;;10.58;69.08
66021;BME280;52789;59.980;30.346;2023-04-22T07:09:00;101160.31;;;10.61;68.47
66021;BME280;52789;59.980;30.346;2023-04-22T07:11:26;101158.47;;;10.62;68.92
66021;BME280;52789;59.980;30.346;2023-04-22T07:13:51;101153.53;;;10.67;68.15
66021;BME280;52789;59.980;30.346;2023-04-22T07:16:17;101156.34;;;10.65;68.76
66021;BME280;52789;59.980;30.346;2023-04-22T07:18:42;101153.00;;;10.63;68.14
66021;BME280;52789;59.980;30.346;2023-04-22T07:21:07;101153.63;;;10.75;68.44
66021;BME280;52789;59.980;30.346;2023-04-22T07:23:33;101153.16;;;10.79;68.20
66021;BME280;52789;59.980;30.346;2023-04-22T07:25:58;101154.88;;;10.89;67.74
66021;BME280;52789;59.980;30.346;2023-04-22T07:28:23;101152.41;;;10.95;67.59
66021;BME280;52789;59.980;30.346;2023-04-22T07:30:50;101135.75;;;10.93;67.13
66021;BME280;52789;59.980;30.346;2023-04-22T07:33:15;101141.31;;;11.00;67.17
66021;BME280;52789;59.980;30.346;2023-04-22T07:35:40;101146.38;;;11.11;66.76
66021;BME280;52789;59.980;30.346;2023-04-22T07:38:06;101141.88;;;11.11;66.72
66021;BME280;52789;59.980;30.346;2023-04-22T07:40:31;101146.06;;;11.14;66.74
66021;BME280;52789;59.980;30.346;2023-04-22T07:42:57;101140.09;;;11.20;65.98
66021;BME280;52789;59.980;30.346;2023-04-22T07:45:22;101138.78;;;11.24;66.26
66021;BME280;52789;59.980;30.346;2023-04-22T07:47:47;101144.78;;;11.26;66.00
66021;BME280;52789;59.980;30.346;2023-04-22T07:50:13;101143.44;;;11.22;66.22
66021;BME280;52789;59.980;30.346;2023-04-22T07:52:38;101147.47;;;11.26;65.97
66021;BME280;52789;59.980;30.346;2023-04-22T07:55:03;101138.69;;;11.34;65.94
66021;BME280;52789;59.980;30.346;2023-04-22T07:57:29;101135.38;;;11.40;65.56
66021;BME280;52789;59.980;30.346;2023-04-22T07:59:54;101136.94;;;11.51;65.30
66021;BME280;52789;59.980;30.346;2023-04-22T08:02:20;101135.66;;;11.63;64.99
66021;BME280;52789;59.980;30.346;2023-04-22T08:04:46;101138.03;;;11.74;64.89
66021;BME280;52789;59.980;30.346;2023-04-22T08:07:13;101141.38;;;11.76;64.04
66021;BME280;52789;59.980;30.346;2023-04-22T08:09:39;101132.75;;;11.82;64.12
66021;BME280;52789;59.980;30.346;2023-04-22T08:12:04;101133.97;;;11.88;63.93
66021;BME280;52789;59.980;30.346;2023-04-22T08:14:29;101137.81;;;11.93;63.31
66021;BME280;52789;59.980;30.346;2023-04-22T08:16:55;101136.81;;;11.94;63.56
66021;BME280;52789;59.980;30.346;2023-04-22T08:19:20;101138.81;;;12.00;63.43
66021;BME280;52789;59.980;30.346;2023-04-22T08:21:45;101143.84;;;12.03;63.08
66021;BME280;52789;59.980;30.346;2023-04-22T08:24:12;101144.19;;;12.08;62.67
66021;BME280;52789;59.980;30.346;2023-04-22T08:26:38;101137.50;;;12.13;62.72
66021;BME280;52789;59.980;30.346;2023-04-22T08:29:04;101144.41;;;12.23;62.46
66021;BME280;52789;59.980;30.346;2023-04-22T08:31:29;101145.06;;;12.25;61.76
66021;BME280;52789;59.980;30.346;2023-04-22T08:33:55;101134.06;;;12.28;61.98
66021;BME280;52789;59.980;30.346;2023-04-22T08:36:20;101131.22;;;12.38;61.22
66021;BME280;52789;59.980;30.346;2023-04-22T08:38:50;101130.03;;;12.40;61.28
66021;BME280;52789;59.980;30.346;2023-04-22T08:41:16;101138.94;;;12.49;61.46
66021;BME280;52789;59.980;30.346;2023-04-22T08:43:42;101133.41;;;12.59;61.30
66021;BME280;52789;59.980;30.346;2023-04-22T08:46:09;101135.41;;;12.65;60.18
66021;BME280;52789;59.980;30.346;2023-04-22T08:48:34;101130.56;;;12.68;60.38
66021;BME280;52789;59.980;30.346;2023-04-22T08:51:00;101127.72;;;12.70;59.98
66021;BME280;52789;59.980;30.346;2023-04-22T08:53:26;101133.09;;;12.78;59.99
66021;BME280;52789;59.980;30.346;2023-04-22T08:55:52;101121.22;;;12.89;60.25
66021;BME280;52789;59.980;30.346;2023-04-22T08:58:19;101132.22;;;12.94;59.25
66021;BME280;52789;59.980;30.346;2023-04-22T09:00:45;101132.22;;;12.94;59.19
66021;BME280;52789;59.980;30.346;2023-04-22T09:03:12;101129.56;;;13.02;58.92
66021;BME280;52789;59.980;30.346;2023-04-22T09:05:38;101122.19;;;13.12;59.07
66021;BME280;52789;59.980;30.346;2023-04-22T09:08:04;101121.84;;;13.15;58.54
66021;BME280;52789;59.980;30.346;2023-04-22T09:10:31;101130.88;;;13.22;58.36
66021;BME280;52789;59.980;30.346;2023-04-22T09:12:57;101137.19;;;13.29;58.53
66021;BME280;52789;59.980;30.346;2023-04-22T09:15:23;101132.38;;;13.33;58.28
66021;BME280;52789;59.980;30.346;2023-04-22T09:17:49;101131.72;;;13.31;57.92
66021;BME280;52789;59.980;30.346;2023-04-22T09:20:15;101133.69;;;13.29;58.32
66021;BME280;52789;59.980;30.346;2023-04-22T09:22:43;101130.84;;;13.39;57.77
66021;BME280;52789;59.980;30.346;2023-04-22T09:25:18;101128.63;;;13.50;57.60
66021;BME280;52789;59.980;30.346;2023-04-22T09:28:02;101117.38;;;13.55;57.46
66021;BME280;52789;59.980;30.346;2023-04-22T09:30:28;101115.72;;;13.54;57.35
66021;BME280;52789;59.980;30.346;2023-04-22T09:32:58;101120.06;;;13.55;57.27
66021;BME280;52789;59.980;30.346;2023-04-22T09:35:24;101112.22;;;13.53;55.78
66021;BME280;52789;59.980;30.346;2023-04-22T09:37:51;101111.91;;;13.48;56.24
66021;BME280;52789;59.980;30.346;2023-04-22T09:40:17;101111.72;;;13.50;56.48
66021;BME280;52789;59.980;30.346;2023-04-22T09:42:48;101111.88;;;13.56;56.89
66021;BME280;52789;59.980;30.346;2023-04-22T09:45:14;101116.19;;;13.66;56.15
66021;BME280;52789;59.980;30.346;2023-04-22T09:47:48;101100.97;;;13.66;56.19
66021;BME280;52789;59.980;30.346;2023-04-22T09:50:13;101101.94;;;13.73;55.56
66021;BME280;52789;59.980;30.346;2023-04-22T09:52:39;101095.56;;;13.74;55.34
66021;BME280;52789;59.980;30.346;2023-04-22T09:55:04;101098.25;;;13.74;55.41
66021;BME280;52789;59.980;30.346;2023-04-22T09:57:32;101100.53;;;13.85;55.88
66021;BME280;52789;59.980;30.346;2023-04-22T09:59:58;101099.84;;;13.91;56.06
66021;BME280;52789;59.980;30.346;2023-04-22T10:02:29;101094.97;;;13.95;55.99
66021;BME280;52789;59.980;30.346;2023-04-22T10:04:55;101090.09;;;13.99;54.66
66021;BME280;52789;59.980;30.346;2023-04-22T10:07:21;101095.09;;;14.02;55.03
66021;BME280;52789;59.980;30.346;2023-04-22T10:09:47;101086.75;;;13.97;54.71
66021;BME280;52789;59.980;30.346;2023-04-22T10:12:12;101076.16;;;14.03;54.48
66021;BME280;52789;59.980;30.346;2023-04-22T10:14:38;101082.81;;;14.07;53.79
66021;BME280;52789;59.980;30.346;2023-04-22T10:17:03;101088.53;;;14.04;52.79
66021;BME280;52789;59.980;30.346;2023-04-22T10:19:29;101078.19;;;14.01;52.73
66021;BME280;52789;59.980;30.346;2023-04-22T10:21:58;101080.69;;;14.03;51.68
66021;BME280;52789;59.980;30.346;2023-04-22T10:24:25;101075.31;;;14.03;52.29
66021;BME280;52789;59.980;30.346;2023-04-22T10:26:58;101068.41;;;14.08;51.32
66021;BME280;52789;59.980;30.346;2023-04-22T10:29:33;101067.22;;;14.11;51.14
66021;BME280;52789;59.980;30.346;2023-04-22T10:32:04;101072.72;;;14.17;50.69
66021;BME280;52789;59.980;30.346;2023-04-22T10:34:30;101064.44;;;14.27;50.29
66021;BME280;52789;59.980;30.346;2023-04-22T10:37:11;101060.03;;;14.34;50.32
66021;BME280;52789;59.980;30.346;2023-04-22T10:39:37;101061.31;;;14.46;49.62
66021;BME280;52789;59.980;30.346;2023-04-22T10:47:11;101048.75;;;14.62;48.06
66021;BME280;52789;59.980;30.346;2023-04-22T10:49:36;101048.69;;;14.70;48.47
66021;BME280;52789;59.980;30.346;2023-04-22T10:52:03;101057.78;;;14.83;48.51
66021;BME280;52789;59.980;30.346;2023-04-22T10:57:09;101059.16;;;14.94;48.16
66021;BME280;52789;59.980;30.346;2023-04-22T10:59:45;101055.09;;;14.98;48.54
66021;BME280;52789;59.980;30.346;2023-04-22T11:02:12;101052.50;;;14.90;48.15
66021;BME280;52789;59.980;30.346;2023-04-22T11:04:37;101052.88;;;14.87;49.28
66021;BME280;52789;59.980;30.346;2023-04-22T11:07:13;101057.69;;;14.77;49.26
66021;BME280;52789;59.980;30.346;2023-04-22T11:09:41;101049.63;;;14.77;49.60
66021;BME280;52789;59.980;30.346;2023-04-22T11:14:51;101057.13;;;14.81;50.38
66021;BME280;52789;59.980;30.346;2023-04-22T11:17:17;101061.09;;;14.85;50.27
66021;BME280;52789;59.980;30.346;2023-04-22T11:19:43;101061.84;;;14.79;50.31
66021;BME280;52789;59.980;30.346;2023-04-22T11:22:09;101054.34;;;14.75;50.64
66021;BME280;52789;59.980;30.346;2023-04-22T11:24:35;101053.34;;;14.76;50.90
66021;BME280;52789;59.980;30.346;2023-04-22T11:27:00;101055.88;;;14.69;50.81
66021;BME280;52789;59.980;30.346;2023-04-22T11:29:25;101049.34;;;14.72;50.00
66021;BME280;52789;59.980;30.346;2023-04-22T11:31:51;101039.91;;;14.61;49.57
66021;BME280;52789;59.980;30.346;2023-04-22T11:34:16;101036.56;;;14.74;50.40
66021;BME280;52789;59.980;30.346;2023-04-22T11:36:43;101037.72;;;14.79;49.66
66021;BME280;52789;59.980;30.346;2023-04-22T11:39:09;101029.03;;;14.77;49.55
66021;BME280;52789;59.980;30.346;2023-04-22T11:41:42;101022.38;;;14.88;49.67
66021;BME280;52789;59.980;30.346;2023-04-22T11:44:07;101022.00;;;14.91;48.83
66021;BME280;52789;59.980;30.346;2023-04-22T11:46:33;101032.25;;;15.02;48.21
66021;BME280;52789;59.980;30.346;2023-04-22T11:49:11;101011.09;;;15.07;47.26
66021;BME280;52789;59.980;30.346;2023-04-22T11:51:49;101016.09;;;15.10;47.66
66021;BME280;52789;59.980;30.346;2023-04-22T11:54:15;101016.53;;;15.14;47.89
66021;BME280;52789;59.980;30.346;2023-04-22T11:56:40;101018.00;;;15.16;47.26
66021;BME280;52789;59.980;30.346;2023-04-22T11:59:06;101012.84;;;15.15;47.96
66021;BME280;52789;59.980;30.346;2023-04-22T12:01:31;101023.00;;;15.19;48.06
66021;BME280;52789;59.980;30.346;2023-04-22T12:04:00;101011.25;;;15.21;47.86
66021;BME280;52789;59.980;30.346;2023-04-22T12:06:28;101017.72;;;15.26;47.83
66021;BME280;52789;59.980;30.346;2023-04-22T12:08:54;101013.63;;;15.30;48.10
66021;BME280;52789;59.980;30.346;2023-04-22T12:11:20;101016.44;;;15.37;47.98
66021;BME280;52789;59.980;30.346;2023-04-22T12:13:45;101025.19;;;15.31;47.73
66021;BME280;52789;59.980;30.346;2023-04-22T12:16:16;101009.06;;;15.09;46.97
66021;BME280;52789;59.980;30.346;2023-04-22T12:21:14;101007.75;;;15.05;46.26
66021;BME280;52789;59.980;30.346;2023-04-22T12:23:44;101000.81;;;15.11;46.20
66021;BME280;52789;59.980;30.346;2023-04-22T12:26:10;101001.72;;;15.18;46.02
66021;BME280;52789;59.980;30.346;2023-04-22T12:28:36;100989.06;;;15.12;45.84
66021;BME280;52789;59.980;30.346;2023-04-22T12:31:01;100987.47;;;15.17;45.47
66021;BME280;52789;59.980;30.346;2023-04-22T12:33:27;101001.34;;;15.21;44.88
66021;BME280;52789;59.980;30.346;2023-04-22T12:35:53;100992.09;;;15.24;45.03
66021;BME280;52789;59.980;30.346;2023-04-22T12:38:18;101005.88;;;15.21;44.88
66021;BME280;52789;59.980;30.346;2023-04-22T12:40:43;101003.31;;;15.12;44.20
66021;BME280;52789;59.980;30.346;2023-04-22T12:43:09;100997.94;;;15.12;45.43
66021;BME280;52789;59.980;30.346;2023-04-22T12:45:34;101000.91;;;15.17;45.25
66021;BME280;52789;59.980;30.346;2023-04-22T12:47:59;101009.22;;;15.23;45.00
66021;BME280;52789;59.980;30.346;2023-04-22T12:50:25;101002.59;;;15.04;44.37
66021;BME280;52789;59.980;30.346;2023-04-22T12:52:50;101003.94;;;15.00;45.28
66021;BME280;52789;59.980;30.346;2023-04-22T12:55:16;101009.25;;;15.08;45.13
66021;BME280;52789;59.980;30.346;2023-04-22T12:57:43;101006.00;;;15.12;44.94